sensor_id;sensor_type;location;lat;lon;timestamp;P1;durP1;ratioP1;P2;durP2;ratioP2
29238;SDS011;16267;48.194;11.546;2022-09-20T00:01:04;1.60;;;0.65;;
29238;SDS011;16267;48.194;11.546;2022-09-20T00:03:37;2.05;;;0.40;;
29238;SDS011;16267;48.194;11.546;2022-09-20T00:06:13;3.42;;;0.77;;
29238;SDS011;16267;48.194;11.546;2022-09-20T00:08:44;2.95;;;0.70;;
29238;SDS011;16267;48.194;11.546;2022-09-20T00:11:12;2.83;;;0.60;;
29238;SDS011;16267;48.194;11.546;2022-09-20T00:13:42;1.48;;;0.63;;
29238;SDS011;16267;48.194;11.546;2022-09-20T00:16:12;2.38;;;0.60;;
29238;SDS011;16267;48.194;11.546;2022-09-20T00:18:50;4.07;;;0.88;;
29238;SDS011;16267;48.194;11.546;2022-09-20T00:21:19;4.28;;;0.90;;
29238;SDS011;16267;48.194;11.546;2022-09-20T00:23:48;2.78;;;0.93;;
29238;SDS011;16267;48.194;11.546;2022-09-20T00:26:14;2.83;;;0.80;;
29238;SDS011;16267;48.194;11.546;2022-09-20T00:28:40;1.35;;;0.57;;
29238;SDS011;16267;48.194;11.546;2022-09-20T00:31:07;4.80;;;0.90;;
29238;SDS011;16267;48.194;11.546;2022-09-20T00:33:33;3.47;;;1.05;;
29238;SDS011;16267;48.194;11.546;2022-09-20T00:36:17;1.98;;;0.77;;
29238;SDS011;16267;48.194;11.546;2022-09-20T00:38:42;4.50;;;1.30;;
29238;SDS011;16267;48.194;11.546;2022-09-20T00:41:08;2.28;;;0.80;;
29238;SDS011;16267;48.194;11.546;2022-09-20T00:43:42;3.78;;;1.02;;
29238;SDS011;16267;48.194;11.546;2022-09-20T00:49:02;4.97;;;1.40;;
29238;SDS011;16267;48.194;11.546;2022-09-20T00:51:44;2.50;;;0.82;;
29238;SDS011;16267;48.194;11.546;2022-09-20T00:54:16;3.00;;;0.75;;
29238;SDS011;16267;48.194;11.546;2022-09-20T00:56:44;4.20;;;0.90;;
29238;SDS011;16267;48.194;11.546;2022-09-20T00:59:13;3.25;;;1.15;;
29238;SDS011;16267;48.194;11.546;2022-09-20T04:03:21;5.03;;;1.60;;
29238;SDS011;16267;48.194;11.546;2022-09-20T04:12:13;4.60;;;1.27;;
29238;SDS011;16267;48.194;11.546;2022-09-20T04:24:03;3.75;;;1.75;;
29238;SDS011;16267;48.194;11.546;2022-09-20T04:26:56;2.55;;;1.30;;
29238;SDS011;16267;48.194;11.546;2022-09-20T04:32:40;2.63;;;1.40;;
29238;SDS011;16267;48.194;11.546;2022-09-20T04:43:57;2.78;;;1.52;;
29238;SDS011;16267;48.194;11.546;2022-09-20T04:56:06;6.82;;;1.73;;
29238;SDS011;16267;48.194;11.546;2022-09-20T04:58:47;1.73;;;1.40;;
29238;SDS011;16267;48.194;11.546;2022-09-20T05:19:19;2.97;;;1.70;;
29238;SDS011;16267;48.194;11.546;2022-09-20T05:31:13;5.68;;;2.30;;
29238;SDS011;16267;48.194;11.546;2022-09-20T05:39:55;5.93;;;2.25;;
29238;SDS011;16267;48.194;11.546;2022-09-20T05:45:56;7.88;;;2.28;;
29238;SDS011;16267;48.194;11.546;2022-09-20T06:02:40;6.70;;;1.90;;
29238;SDS011;16267;48.194;11.546;2022-09-20T06:05:28;7.05;;;2.22;;
29238;SDS011;16267;48.194;11.546;2022-09-20T06:13:51;9.07;;;2.60;;
29238;SDS011;16267;48.194;11.546;2022-09-20T06:16:50;8.00;;;2.55;;
29238;SDS011;16267;48.194;11.546;2022-09-20T06:22:42;6.82;;;2.10;;
29238;SDS011;16267;48.194;11.546;2022-09-20T06:28:17;8.57;;;2.38;;
29238;SDS011;16267;48.194;11.546;2022-09-20T06:30:46;15.35;;;2.55;;
29238;SDS011;16267;48.194;11.546;2022-09-20T06:33:17;9.07;;;2.47;;
29238;SDS011;16267;48.194;11.546;2022-09-20T06:35:55;9.80;;;2.47;;
29238;SDS011;16267;48.194;11.546;2022-09-20T06:42:25;5.93;;;2.73;;
29238;SDS011;16267;48.194;11.546;2022-09-20T06:44:51;10.02;;;3.00;;
29238;SDS011;16267;48.194;11.546;2022-09-20T06:47:18;5.13;;;2.30;;
29238;SDS011;16267;48.194;11.546;2022-09-20T06:49:44;6.35;;;2.67;;
29238;SDS011;16267;48.194;11.546;2022-09-20T06:52:15;6.82;;;2.83;;
29238;SDS011;16267;48.194;11.546;2022-09-20T06:54:44;7.80;;;3.63;;
29238;SDS011;16267;48.194;11.546;2022-09-20T06:57:14;8.30;;;2.95;;
29238;SDS011;16267;48.194;11.546;2022-09-20T06:59:44;7.15;;;3.08;;
29238;SDS011;16267;48.194;11.546;2022-09-20T07:02:10;7.72;;;2.65;;
29238;SDS011;16267;48.194;11.546;2022-09-20T07:04:36;6.72;;;2.63;;
29238;SDS011;16267;48.194;11.546;2022-09-20T07:07:02;6.50;;;2.75;;
29238;SDS011;16267;48.194;11.546;2022-09-20T07:09:31;8.30;;;2.50;;
29238;SDS011;16267;48.194;11.546;2022-09-20T07:11:57;5.95;;;2.50;;
29238;SDS011;16267;48.194;11.546;2022-09-20T07:14:23;9.85;;;3.15;;
29238;SDS011;16267;48.194;11.546;2022-09-20T07:16:51;5.90;;;2.25;;
29238;SDS011;16267;48.194;11.546;2022-09-20T07:19:18;5.88;;;2.20;;
29238;SDS011;16267;48.194;11.546;2022-09-20T07:21:44;7.05;;;2.45;;
29238;SDS011;16267;48.194;11.546;2022-09-20T07:24:10;6.10;;;2.25;;
29238;SDS011;16267;48.194;11.546;2022-09-20T07:26:39;6.25;;;2.50;;
29238;SDS011;16267;48.194;11.546;2022-09-20T07:29:18;8.48;;;2.70;;
29238;SDS011;16267;48.194;11.546;2022-09-20T07:31:44;6.25;;;2.40;;
29238;SDS011;16267;48.194;11.546;2022-09-20T07:34:09;6.78;;;2.58;;
29238;SDS011;16267;48.194;11.546;2022-09-20T07:36:35;12.23;;;4.55;;
29238;SDS011;16267;48.194;11.546;2022-09-20T07:39:01;9.90;;;5.13;;
29238;SDS011;16267;48.194;11.546;2022-09-20T07:41:27;14.10;;;5.47;;
29238;SDS011;16267;48.194;11.546;2022-09-20T07:43:54;8.75;;;3.33;;
29238;SDS011;16267;48.194;11.546;2022-09-20T07:46:40;10.20;;;3.33;;
29238;SDS011;16267;48.194;11.546;2022-09-20T07:49:05;7.18;;;2.90;;
29238;SDS011;16267;48.194;11.546;2022-09-20T07:51:31;10.20;;;3.30;;
29238;SDS011;16267;48.194;11.546;2022-09-20T07:53:57;5.38;;;2.58;;
29238;SDS011;16267;48.194;11.546;2022-09-20T07:56:23;10.93;;;3.47;;
29238;SDS011;16267;48.194;11.546;2022-09-20T07:58:48;6.35;;;2.85;;
29238;SDS011;16267;48.194;11.546;2022-09-20T08:01:15;12.52;;;3.50;;
29238;SDS011;16267;48.194;11.546;2022-09-20T08:03:40;8.73;;;3.08;;
29238;SDS011;16267;48.194;11.546;2022-09-20T08:06:08;10.48;;;3.15;;
29238;SDS011;16267;48.194;11.546;2022-09-20T08:08:38;11.10;;;3.47;;
29238;SDS011;16267;48.194;11.546;2022-09-20T08:11:09;10.23;;;3.10;;
29238;SDS011;16267;48.194;11.546;2022-09-20T08:13:38;6.45;;;2.80;;
29238;SDS011;16267;48.194;11.546;2022-09-20T08:16:08;9.10;;;3.55;;
29238;SDS011;16267;48.194;11.546;2022-09-20T08:18:37;8.32;;;3.20;;
29238;SDS011;16267;48.194;11.546;2022-09-20T08:21:03;9.68;;;3.47;;
29238;SDS011;16267;48.194;11.546;2022-09-20T08:23:34;9.63;;;3.50;;
29238;SDS011;16267;48.194;11.546;2022-09-20T08:26:01;7.63;;;3.15;;
29238;SDS011;16267;48.194;11.546;2022-09-20T08:28:28;8.55;;;3.08;;
29238;SDS011;16267;48.194;11.546;2022-09-20T08:31:08;7.28;;;2.83;;
29238;SDS011;16267;48.194;11.546;2022-09-20T08:33:40;10.27;;;4.07;;
29238;SDS011;16267;48.194;11.546;2022-09-20T08:36:08;9.85;;;3.38;;
29238;SDS011;16267;48.194;11.546;2022-09-20T08:38:41;8.02;;;3.70;;
29238;SDS011;16267;48.194;11.546;2022-09-20T08:41:11;8.35;;;4.07;;
29238;SDS011;16267;48.194;11.546;2022-09-20T08:43:45;8.85;;;3.47;;
29238;SDS011;16267;48.194;11.546;2022-09-20T08:46:19;8.43;;;4.32;;
29238;SDS011;16267;48.194;11.546;2022-09-20T08:48:53;10.10;;;4.60;;
29238;SDS011;16267;48.194;11.546;2022-09-20T08:51:22;7.97;;;3.83;;
29238;SDS011;16267;48.194;11.546;2022-09-20T08:53:51;9.88;;;3.97;;
29238;SDS011;16267;48.194;11.546;2022-09-20T08:56:19;12.07;;;4.57;;
29238;SDS011;16267;48.194;11.546;2022-09-20T08:58:46;11.23;;;3.78;;
29238;SDS011;16267;48.194;11.546;2022-09-20T09:01:17;8.13;;;4.07;;
29238;SDS011;16267;48.194;11.546;2022-09-20T09:03:49;9.35;;;3.95;;
29238;SDS011;16267;48.194;11.546;2022-09-20T09:06:17;18.25;;;4.55;;
29238;SDS011;16267;48.194;11.546;2022-09-20T09:08:46;11.00;;;4.32;;
29238;SDS011;16267;48.194;11.546;2022-09-20T09:11:16;10.88;;;4.00;;
29238;SDS011;16267;48.194;11.546;2022-09-20T09:16:54;10.25;;;4.57;;
29238;SDS011;16267;48.194;11.546;2022-09-20T09:19:24;12.15;;;4.10;;
29238;SDS011;16267;48.194;11.546;2022-09-20T09:22:07;6.63;;;3.38;;
29238;SDS011;16267;48.194;11.546;2022-09-20T09:24:34;22.77;;;3.72;;
29238;SDS011;16267;48.194;11.546;2022-09-20T09:27:07;10.55;;;3.78;;
29238;SDS011;16267;48.194;11.546;2022-09-20T09:29:50;12.95;;;3.70;;
29238;SDS011;16267;48.194;11.546;2022-09-20T09:32:25;7.90;;;3.13;;
29238;SDS011;16267;48.194;11.546;2022-09-20T09:34:55;9.57;;;4.03;;
29238;SDS011;16267;48.194;11.546;2022-09-20T09:37:51;7.28;;;3.33;;
29238;SDS011;16267;48.194;11.546;2022-09-20T09:40:23;9.68;;;3.40;;
29238;SDS011;16267;48.194;11.546;2022-09-20T09:45:33;9.88;;;3.70;;
29238;SDS011;16267;48.194;11.546;2022-09-20T09:48:22;6.57;;;3.08;;
29238;SDS011;16267;48.194;11.546;2022-09-20T09:53:44;5.80;;;2.28;;
29238;SDS011;16267;48.194;11.546;2022-09-20T09:57:14;8.98;;;3.03;;
29238;SDS011;16267;48.194;11.546;2022-09-20T10:02:57;8.43;;;2.67;;
29238;SDS011;16267;48.194;11.546;2022-09-20T10:08:53;4.70;;;2.15;;
29238;SDS011;16267;48.194;11.546;2022-09-20T10:17:25;7.63;;;2.58;;
29238;SDS011;16267;48.194;11.546;2022-09-20T10:26:21;6.25;;;2.58;;
29238;SDS011;16267;48.194;11.546;2022-09-20T10:35:14;11.00;;;2.20;;
29238;SDS011;16267;48.194;11.546;2022-09-20T10:38:16;7.35;;;2.47;;
29238;SDS011;16267;48.194;11.546;2022-09-20T10:47:16;5.65;;;1.90;;
29238;SDS011;16267;48.194;11.546;2022-09-20T10:53:21;5.70;;;1.80;;
29238;SDS011;16267;48.194;11.546;2022-09-20T11:08:15;5.47;;;1.65;;
29238;SDS011;16267;48.194;11.546;2022-09-20T11:10:53;7.13;;;1.80;;
29238;SDS011;16267;48.194;11.546;2022-09-20T11:16:20;10.57;;;2.92;;
29238;SDS011;16267;48.194;11.546;2022-09-20T11:22:00;13.25;;;2.30;;
29238;SDS011;16267;48.194;11.546;2022-09-20T11:27:51;9.02;;;2.08;;
29238;SDS011;16267;48.194;11.546;2022-09-20T11:30:22;5.25;;;1.83;;
29238;SDS011;16267;48.194;11.546;2022-09-20T11:32:56;5.60;;;1.80;;
29238;SDS011;16267;48.194;11.546;2022-09-20T11:38:21;12.23;;;2.20;;
29238;SDS011;16267;48.194;11.546;2022-09-20T11:43:37;6.55;;;1.20;;
29238;SDS011;16267;48.194;11.546;2022-09-20T11:46:09;7.53;;;1.67;;
29238;SDS011;16267;48.194;11.546;2022-09-20T11:48:50;8.98;;;1.98;;
29238;SDS011;16267;48.194;11.546;2022-09-20T11:55:29;10.15;;;2.50;;
29238;SDS011;16267;48.194;11.546;2022-09-20T11:57:56;8.25;;;1.88;;
29238;SDS011;16267;48.194;11.546;2022-09-20T12:00:32;5.38;;;1.35;;
29238;SDS011;16267;48.194;11.546;2022-09-20T12:03:03;5.75;;;1.35;;
29238;SDS011;16267;48.194;11.546;2022-09-20T12:05:45;6.63;;;2.03;;
29238;SDS011;16267;48.194;11.546;2022-09-20T12:08:30;11.32;;;2.10;;
29238;SDS011;16267;48.194;11.546;2022-09-20T12:11:06;5.28;;;1.60;;
29238;SDS011;16267;48.194;11.546;2022-09-20T12:13:37;5.32;;;1.45;;
29238;SDS011;16267;48.194;11.546;2022-09-20T12:32:42;4.40;;;1.45;;
29238;SDS011;16267;48.194;11.546;2022-09-20T12:41:01;7.68;;;2.03;;
29238;SDS011;16267;48.194;11.546;2022-09-20T12:43:29;3.33;;;1.33;;
29238;SDS011;16267;48.194;11.546;2022-09-20T12:45:58;6.63;;;1.55;;
29238;SDS011;16267;48.194;11.546;2022-09-20T12:48:25;7.10;;;1.80;;
29238;SDS011;16267;48.194;11.546;2022-09-20T12:54:01;7.80;;;1.55;;
29238;SDS011;16267;48.194;11.546;2022-09-20T12:56:34;11.13;;;1.73;;
29238;SDS011;16267;48.194;11.546;2022-09-20T12:59:04;3.45;;;1.38;;
29238;SDS011;16267;48.194;11.546;2022-09-20T13:01:45;5.43;;;1.60;;
29238;SDS011;16267;48.194;11.546;2022-09-20T13:07:31;11.32;;;2.30;;
29238;SDS011;16267;48.194;11.546;2022-09-20T13:12:57;4.15;;;1.55;;
29238;SDS011;16267;48.194;11.546;2022-09-20T13:15:27;8.18;;;1.60;;
29238;SDS011;16267;48.194;11.546;2022-09-20T13:17:54;6.00;;;1.77;;
29238;SDS011;16267;48.194;11.546;2022-09-20T13:20:23;4.75;;;1.20;;
29238;SDS011;16267;48.194;11.546;2022-09-20T13:22:58;7.40;;;1.52;;
29238;SDS011;16267;48.194;11.546;2022-09-20T13:25:27;4.68;;;1.40;;
29238;SDS011;16267;48.194;11.546;2022-09-20T13:28:15;6.15;;;1.92;;
29238;SDS011;16267;48.194;11.546;2022-09-20T13:31:14;9.93;;;1.83;;
29238;SDS011;16267;48.194;11.546;2022-09-20T13:34:14;6.47;;;1.23;;
29238;SDS011;16267;48.194;11.546;2022-09-20T13:36:49;5.13;;;1.58;;
29238;SDS011;16267;48.194;11.546;2022-09-20T13:39:23;4.38;;;1.20;;
29238;SDS011;16267;48.194;11.546;2022-09-20T13:41:59;8.00;;;1.50;;
29238;SDS011;16267;48.194;11.546;2022-09-20T13:44:32;5.70;;;1.50;;
29238;SDS011;16267;48.194;11.546;2022-09-20T13:46:59;5.60;;;1.55;;
29238;SDS011;16267;48.194;11.546;2022-09-20T13:49:29;7.40;;;1.80;;
29238;SDS011;16267;48.194;11.546;2022-09-20T13:51:56;7.22;;;1.63;;
29238;SDS011;16267;48.194;11.546;2022-09-20T13:54:32;3.45;;;1.73;;
29238;SDS011;16267;48.194;11.546;2022-09-20T13:56:59;9.68;;;1.52;;
29238;SDS011;16267;48.194;11.546;2022-09-20T13:59:33;7.38;;;1.27;;
29238;SDS011;16267;48.194;11.546;2022-09-20T14:02:16;3.72;;;1.35;;
29238;SDS011;16267;48.194;11.546;2022-09-20T14:04:56;7.22;;;1.40;;
29238;SDS011;16267;48.194;11.546;2022-09-20T14:07:26;6.78;;;1.70;;
29238;SDS011;16267;48.194;11.546;2022-09-20T14:09:54;6.57;;;1.50;;
29238;SDS011;16267;48.194;11.546;2022-09-20T14:12:22;7.93;;;1.38;;
29238;SDS011;16267;48.194;11.546;2022-09-20T14:14:49;6.43;;;1.58;;
29238;SDS011;16267;48.194;11.546;2022-09-20T14:17:17;8.85;;;1.27;;
29238;SDS011;16267;48.194;11.546;2022-09-20T14:19:48;4.72;;;1.00;;
29238;SDS011;16267;48.194;11.546;2022-09-20T14:22:19;5.63;;;1.25;;
29238;SDS011;16267;48.194;11.546;2022-09-20T14:24:56;8.48;;;1.63;;
29238;SDS011;16267;48.194;11.546;2022-09-20T14:27:43;4.13;;;1.70;;
29238;SDS011;16267;48.194;11.546;2022-09-20T14:32:56;3.97;;;1.48;;
29238;SDS011;16267;48.194;11.546;2022-09-20T14:35:23;6.68;;;1.70;;
29238;SDS011;16267;48.194;11.546;2022-09-20T14:38:04;6.53;;;1.35;;
29238;SDS011;16267;48.194;11.546;2022-09-20T14:43:30;6.80;;;1.42;;
29238;SDS011;16267;48.194;11.546;2022-09-20T14:45:59;7.78;;;2.13;;
29238;SDS011;16267;48.194;11.546;2022-09-20T14:53:41;4.15;;;1.40;;
29238;SDS011;16267;48.194;11.546;2022-09-20T14:56:10;4.55;;;1.00;;
29238;SDS011;16267;48.194;11.546;2022-09-20T15:01:36;4.55;;;1.67;;
29238;SDS011;16267;48.194;11.546;2022-09-20T15:04:16;3.78;;;1.27;;
29238;SDS011;16267;48.194;11.546;2022-09-20T15:06:46;5.38;;;1.13;;
29238;SDS011;16267;48.194;11.546;2022-09-20T15:09:14;5.13;;;1.10;;
29238;SDS011;16267;48.194;11.546;2022-09-20T15:11:41;5.28;;;1.42;;
29238;SDS011;16267;48.194;11.546;2022-09-20T15:14:07;2.72;;;1.10;;
29238;SDS011;16267;48.194;11.546;2022-09-20T15:16:33;4.75;;;0.90;;
29238;SDS011;16267;48.194;11.546;2022-09-20T15:18:58;8.10;;;2.17;;
29238;SDS011;16267;48.194;11.546;2022-09-20T15:21:24;4.25;;;1.25;;
29238;SDS011;16267;48.194;11.546;2022-09-20T15:23:50;4.50;;;1.10;;
29238;SDS011;16267;48.194;11.546;2022-09-20T15:26:17;6.18;;;1.38;;
29238;SDS011;16267;48.194;11.546;2022-09-20T15:28:45;9.45;;;1.50;;
29238;SDS011;16267;48.194;11.546;2022-09-20T15:31:12;3.78;;;1.25;;
29238;SDS011;16267;48.194;11.546;2022-09-20T15:33:39;6.03;;;1.40;;
29238;SDS011;16267;48.194;11.546;2022-09-20T15:36:05;4.43;;;1.00;;
29238;SDS011;16267;48.194;11.546;2022-09-20T15:38:32;4.72;;;1.20;;
29238;SDS011;16267;48.194;11.546;2022-09-20T15:40:59;6.22;;;0.90;;
29238;SDS011;16267;48.194;11.546;2022-09-20T15:43:30;4.03;;;1.05;;
29238;SDS011;16267;48.194;11.546;2022-09-20T15:45:57;5.25;;;1.08;;
29238;SDS011;16267;48.194;11.546;2022-09-20T15:48:43;5.85;;;1.20;;
29238;SDS011;16267;48.194;11.546;2022-09-20T15:51:10;8.10;;;1.45;;
29238;SDS011;16267;48.194;11.546;2022-09-20T15:53:41;4.30;;;1.75;;
29238;SDS011;16267;48.194;11.546;2022-09-20T15:58:57;5.85;;;1.38;;
29238;SDS011;16267;48.194;11.546;2022-09-20T16:01:25;3.33;;;0.93;;
29238;SDS011;16267;48.194;11.546;2022-09-20T16:03:55;5.38;;;1.50;;
29238;SDS011;16267;48.194;11.546;2022-09-20T16:06:21;4.28;;;1.13;;
29238;SDS011;16267;48.194;11.546;2022-09-20T16:08:48;8.20;;;1.67;;
29238;SDS011;16267;48.194;11.546;2022-09-20T16:11:16;5.07;;;0.90;;
29238;SDS011;16267;48.194;11.546;2022-09-20T16:13:53;4.43;;;1.20;;
29238;SDS011;16267;48.194;11.546;2022-09-20T16:16:21;8.23;;;1.10;;
29238;SDS011;16267;48.194;11.546;2022-09-20T16:18:48;4.35;;;0.90;;
29238;SDS011;16267;48.194;11.546;2022-09-20T16:21:32;10.00;;;0.98;;
29238;SDS011;16267;48.194;11.546;2022-09-20T16:23:58;5.47;;;1.63;;
29238;SDS011;16267;48.194;11.546;2022-09-20T16:26:25;3.53;;;0.93;;
29238;SDS011;16267;48.194;11.546;2022-09-20T16:28:53;4.43;;;1.50;;
29238;SDS011;16267;48.194;11.546;2022-09-20T16:31:29;7.18;;;1.05;;
29238;SDS011;16267;48.194;11.546;2022-09-20T16:34:21;6.18;;;1.52;;
29238;SDS011;16267;48.194;11.546;2022-09-20T16:36:54;5.53;;;1.05;;
29238;SDS011;16267;48.194;11.546;2022-09-20T16:39:25;6.85;;;1.02;;
29238;SDS011;16267;48.194;11.546;2022-09-20T16:41:56;4.68;;;1.30;;
29238;SDS011;16267;48.194;11.546;2022-09-20T16:44:30;8.07;;;1.40;;
29238;SDS011;16267;48.194;11.546;2022-09-20T16:46:58;7.97;;;1.10;;
29238;SDS011;16267;48.194;11.546;2022-09-20T16:49:24;3.75;;;1.15;;
29238;SDS011;16267;48.194;11.546;2022-09-20T16:51:50;3.15;;;1.13;;
29238;SDS011;16267;48.194;11.546;2022-09-20T16:54:16;6.85;;;1.55;;
29238;SDS011;16267;48.194;11.546;2022-09-20T16:56:46;7.85;;;1.48;;
29238;SDS011;16267;48.194;11.546;2022-09-20T16:59:14;5.72;;;1.27;;
29238;SDS011;16267;48.194;11.546;2022-09-20T17:01:42;8.25;;;1.48;;
29238;SDS011;16267;48.194;11.546;2022-09-20T17:04:09;6.15;;;1.25;;
29238;SDS011;16267;48.194;11.546;2022-09-20T17:06:41;4.00;;;1.30;;
29238;SDS011;16267;48.194;11.546;2022-09-20T17:09:10;4.07;;;1.38;;
29238;SDS011;16267;48.194;11.546;2022-09-20T17:11:38;6.18;;;1.38;;
29238;SDS011;16267;48.194;11.546;2022-09-20T17:14:13;7.75;;;1.83;;
29238;SDS011;16267;48.194;11.546;2022-09-20T17:16:42;6.85;;;1.80;;
29238;SDS011;16267;48.194;11.546;2022-09-20T17:19:12;3.67;;;1.23;;
29238;SDS011;16267;48.194;11.546;2022-09-20T17:21:42;5.47;;;1.40;;
29238;SDS011;16267;48.194;11.546;2022-09-20T17:24:13;4.25;;;1.50;;
29238;SDS011;16267;48.194;11.546;2022-09-20T17:26:40;8.75;;;1.20;;
29238;SDS011;16267;48.194;11.546;2022-09-20T17:29:09;3.95;;;1.23;;
29238;SDS011;16267;48.194;11.546;2022-09-20T17:31:39;7.70;;;1.52;;
29238;SDS011;16267;48.194;11.546;2022-09-20T17:34:10;9.52;;;2.50;;
29238;SDS011;16267;48.194;11.546;2022-09-20T17:36:39;8.73;;;3.25;;
29238;SDS011;16267;48.194;11.546;2022-09-20T17:39:07;6.32;;;2.15;;
29238;SDS011;16267;48.194;11.546;2022-09-20T17:41:36;5.97;;;1.70;;
29238;SDS011;16267;48.194;11.546;2022-09-20T17:44:04;3.63;;;1.65;;
29238;SDS011;16267;48.194;11.546;2022-09-20T17:46:33;6.25;;;1.73;;
29238;SDS011;16267;48.194;11.546;2022-09-20T17:49:02;6.70;;;1.77;;
29238;SDS011;16267;48.194;11.546;2022-09-20T17:51:35;4.35;;;1.30;;
29238;SDS011;16267;48.194;11.546;2022-09-20T17:54:04;7.22;;;1.60;;
29238;SDS011;16267;48.194;11.546;2022-09-20T17:56:31;11.05;;;1.73;;
29238;SDS011;16267;48.194;11.546;2022-09-20T17:58:59;17.20;;;5.70;;
29238;SDS011;16267;48.194;11.546;2022-09-20T18:01:27;38.58;;;16.95;;
29238;SDS011;16267;48.194;11.546;2022-09-20T18:03:55;77.15;;;34.97;;
29238;SDS011;16267;48.194;11.546;2022-09-20T18:06:36;103.70;;;39.92;;
29238;SDS011;16267;48.194;11.546;2022-09-20T18:09:10;53.25;;;22.23;;
29238;SDS011;16267;48.194;11.546;2022-09-20T18:11:40;40.60;;;16.20;;
29238;SDS011;16267;48.194;11.546;2022-09-20T18:14:10;29.05;;;10.65;;
29238;SDS011;16267;48.194;11.546;2022-09-20T18:16:37;30.90;;;11.57;;
29238;SDS011;16267;48.194;11.546;2022-09-20T18:19:05;19.98;;;9.18;;
29238;SDS011;16267;48.194;11.546;2022-09-20T18:21:32;15.50;;;5.97;;
29238;SDS011;16267;48.194;11.546;2022-09-20T18:24:00;31.90;;;12.35;;
29238;SDS011;16267;48.194;11.546;2022-09-20T18:26:31;25.92;;;12.75;;
29238;SDS011;16267;48.194;11.546;2022-09-20T18:31:37;20.90;;;10.73;;
29238;SDS011;16267;48.194;11.546;2022-09-20T18:34:11;19.92;;;9.68;;
29238;SDS011;16267;48.194;11.546;2022-09-20T18:37:07;18.00;;;9.85;;
29238;SDS011;16267;48.194;11.546;2022-09-20T18:39:32;16.15;;;7.05;;
29238;SDS011;16267;48.194;11.546;2022-09-20T18:42:01;37.33;;;17.48;;
29238;SDS011;16267;48.194;11.546;2022-09-20T18:44:28;35.90;;;18.13;;
29238;SDS011;16267;48.194;11.546;2022-09-20T18:46:57;52.08;;;25.70;;
29238;SDS011;16267;48.194;11.546;2022-09-20T18:49:25;50.88;;;24.25;;
29238;SDS011;16267;48.194;11.546;2022-09-20T18:51:51;96.75;;;43.33;;
29238;SDS011;16267;48.194;11.546;2022-09-20T18:54:17;113.90;;;54.20;;
29238;SDS011;16267;48.194;11.546;2022-09-20T18:56:43;101.53;;;45.95;;
29238;SDS011;16267;48.194;11.546;2022-09-20T18:59:16;74.65;;;35.00;;
29238;SDS011;16267;48.194;11.546;2022-09-20T19:07:44;35.88;;;20.73;;
29238;SDS011;16267;48.194;11.546;2022-09-20T19:13:27;13.50;;;9.93;;
29238;SDS011;16267;48.194;11.546;2022-09-20T19:16:15;13.23;;;6.55;;
29238;SDS011;16267;48.194;11.546;2022-09-20T19:21:22;8.48;;;3.75;;
29238;SDS011;16267;48.194;11.546;2022-09-20T19:24:18;10.35;;;2.80;;
29238;SDS011;16267;48.194;11.546;2022-09-20T19:27:09;5.53;;;2.75;;
29238;SDS011;16267;48.194;11.546;2022-09-20T19:29:38;9.77;;;4.95;;
29238;SDS011;16267;48.194;11.546;2022-09-20T19:32:04;11.07;;;5.47;;
29238;SDS011;16267;48.194;11.546;2022-09-20T19:34:52;8.35;;;3.47;;
29238;SDS011;16267;48.194;11.546;2022-09-20T19:40:43;5.15;;;2.78;;
29238;SDS011;16267;48.194;11.546;2022-09-20T19:43:39;8.65;;;2.97;;
29238;SDS011;16267;48.194;11.546;2022-09-20T19:46:32;4.40;;;2.25;;
29238;SDS011;16267;48.194;11.546;2022-09-20T19:49:23;8.85;;;2.53;;
29238;SDS011;16267;48.194;11.546;2022-09-20T19:52:17;9.23;;;2.58;;
29238;SDS011;16267;48.194;11.546;2022-09-20T19:54:43;5.78;;;2.20;;
29238;SDS011;16267;48.194;11.546;2022-09-20T19:57:12;5.05;;;1.70;;
29238;SDS011;16267;48.194;11.546;2022-09-20T19:59:56;6.22;;;3.08;;
29238;SDS011;16267;48.194;11.546;2022-09-20T20:02:22;9.15;;;3.13;;
29238;SDS011;16267;48.194;11.546;2022-09-20T20:04:48;7.72;;;2.80;;
29238;SDS011;16267;48.194;11.546;2022-09-20T20:10:09;6.45;;;2.85;;
29238;SDS011;16267;48.194;11.546;2022-09-20T20:16:01;7.63;;;3.15;;
29238;SDS011;16267;48.194;11.546;2022-09-20T20:21:25;8.93;;;2.90;;
29238;SDS011;16267;48.194;11.546;2022-09-20T20:24:05;8.95;;;2.92;;
29238;SDS011;16267;48.194;11.546;2022-09-20T20:27:06;6.40;;;2.63;;
29238;SDS011;16267;48.194;11.546;2022-09-20T20:29:32;8.70;;;2.85;;
29238;SDS011;16267;48.194;11.546;2022-09-20T20:31:58;11.15;;;2.63;;
29238;SDS011;16267;48.194;11.546;2022-09-20T20:34:24;6.18;;;2.30;;
29238;SDS011;16267;48.194;11.546;2022-09-20T20:36:50;11.10;;;3.33;;
29238;SDS011;16267;48.194;11.546;2022-09-20T20:39:22;8.32;;;3.63;;
29238;SDS011;16267;48.194;11.546;2022-09-20T20:41:48;9.43;;;2.85;;
29238;SDS011;16267;48.194;11.546;2022-09-20T20:44:17;8.48;;;3.13;;
29238;SDS011;16267;48.194;11.546;2022-09-20T20:46:45;10.25;;;3.50;;
29238;SDS011;16267;48.194;11.546;2022-09-20T20:49:11;9.85;;;3.28;;
29238;SDS011;16267;48.194;11.546;2022-09-20T20:51:37;6.35;;;2.80;;
29238;SDS011;16267;48.194;11.546;2022-09-20T20:54:03;10.70;;;3.63;;
29238;SDS011;16267;48.194;11.546;2022-09-20T20:56:29;12.43;;;3.33;;
29238;SDS011;16267;48.194;11.546;2022-09-20T20:58:56;8.10;;;3.33;;
29238;SDS011;16267;48.194;11.546;2022-09-20T21:03:59;7.78;;;3.58;;
29238;SDS011;16267;48.194;11.546;2022-09-20T21:06:28;9.80;;;3.75;;
29238;SDS011;16267;48.194;11.546;2022-09-20T21:08:57;6.38;;;3.10;;
29238;SDS011;16267;48.194;11.546;2022-09-20T21:11:24;8.10;;;3.72;;
29238;SDS011;16267;48.194;11.546;2022-09-20T21:13:53;7.03;;;3.30;;
29238;SDS011;16267;48.194;11.546;2022-09-20T21:16:22;9.80;;;3.47;;
29238;SDS011;16267;48.194;11.546;2022-09-20T21:18:51;7.93;;;3.85;;
29238;SDS011;16267;48.194;11.546;2022-09-20T21:21:21;10.20;;;4.07;;
29238;SDS011;16267;48.194;11.546;2022-09-20T21:23:49;7.43;;;3.40;;
29238;SDS011;16267;48.194;11.546;2022-09-20T21:26:18;8.30;;;3.97;;
29238;SDS011;16267;48.194;11.546;2022-09-20T21:28:48;8.38;;;3.53;;
29238;SDS011;16267;48.194;11.546;2022-09-20T21:31:23;9.25;;;4.00;;
29238;SDS011;16267;48.194;11.546;2022-09-20T21:33:51;9.43;;;3.35;;
29238;SDS011;16267;48.194;11.546;2022-09-20T21:36:18;9.15;;;3.85;;
29238;SDS011;16267;48.194;11.546;2022-09-20T21:38:47;9.27;;;4.00;;
29238;SDS011;16267;48.194;11.546;2022-09-20T21:43:46;16.00;;;3.83;;
29238;SDS011;16267;48.194;11.546;2022-09-20T21:46:14;7.47;;;3.25;;
29238;SDS011;16267;48.194;11.546;2022-09-20T21:48:43;10.40;;;3.72;;
29238;SDS011;16267;48.194;11.546;2022-09-20T21:51:10;7.57;;;2.92;;
29238;SDS011;16267;48.194;11.546;2022-09-20T21:53:38;8.55;;;2.92;;
29238;SDS011;16267;48.194;11.546;2022-09-20T21:56:05;8.98;;;2.70;;
29238;SDS011;16267;48.194;11.546;2022-09-20T21:58:33;8.30;;;2.97;;
29238;SDS011;16267;48.194;11.546;2022-09-20T22:03:43;7.72;;;2.78;;
29238;SDS011;16267;48.194;11.546;2022-09-20T22:08:57;7.50;;;2.70;;
29238;SDS011;16267;48.194;11.546;2022-09-20T22:11:26;10.95;;;3.30;;
29238;SDS011;16267;48.194;11.546;2022-09-20T22:13:55;8.25;;;3.55;;
29238;SDS011;16267;48.194;11.546;2022-09-20T22:16:32;7.45;;;3.10;;
29238;SDS011;16267;48.194;11.546;2022-09-20T22:19:02;9.15;;;3.40;;
29238;SDS011;16267;48.194;11.546;2022-09-20T22:21:32;6.68;;;3.53;;
29238;SDS011;16267;48.194;11.546;2022-09-20T22:24:05;6.57;;;3.10;;
29238;SDS011;16267;48.194;11.546;2022-09-20T22:26:40;10.55;;;3.95;;